Time;durP1;ratioP1;P1;durP2;ratioP2;P2;SDS_P1;SDS_P2;PMS_P1;PMS_P2;Temp;Humidity;BMP_temperature;BMP_pressure;BME280_temperature;BME280_humidity;BME280_pressure;Samples;Min_cycle;Max_cycle;Signal;HPM_P1;HPM_P2
2023/10/08 00:01:18;;;;;;;1.92;0.90;;;;;;;19.27;41.44;99694.06;4486253;31;33693;-81
2023/10/08 00:03:50;;;;;;;2.67;1.02;;;;;;;19.21;41.80;99689.09;4486556;31;32908;-83
2023/10/08 00:06:21;;;;;;;1.55;0.70;;;;;;;19.24;42.31;99688.97;4482184;31;33768;-81
2023/10/08 00:08:50;;;;;;;2.90;1.00;;;;;;;19.17;42.68;99683.16;4487940;31;33186;-81
2023/10/08 00:11:22;;;;;;;2.62;0.93;;;;;;;19.28;42.24;99669.44;4484890;31;33716;-81
2023/10/08 00:13:56;;;;;;;2.40;0.93;;;;;;;19.19;42.64;99670.78;4486055;31;33367;-81
2023/10/08 00:16:28;;;;;;;2.80;0.80;;;;;;;19.16;43.17;99670.91;4485031;31;33570;-80
2023/10/08 00:19:01;;;;;;;1.12;0.77;;;;;;;19.15;43.39;99663.94;4480463;31;34065;-82
2023/10/08 00:21:33;;;;;;;2.67;1.00;;;;;;;19.17;43.30;99670.84;4490137;31;34135;-81
2023/10/08 00:24:05;;;;;;;2.45;1.20;;;;;;;19.09;43.25;99659.84;4480549;31;34342;-80
2023/10/08 00:26:39;;;;;;;2.00;1.05;;;;;;;19.06;43.33;99659.13;4480910;31;33187;-81
2023/10/08 00:29:16;;;;;;;2.05;0.70;;;;;;;19.30;42.55;99664.97;4477431;31;34193;-81
2023/10/08 00:31:47;;;;;;;2.35;0.80;;;;;;;18.84;43.06;99659.31;4478660;31;34278;-82
2023/10/08 00:34:19;;;;;;;1.80;0.68;;;;;;;18.89;42.75;99658.16;4480991;31;33920;-82
2023/10/08 00:36:49;;;;;;;1.92;0.95;;;;;;;19.34;39.21;99658.66;4486666;31;33577;-81
2023/10/08 00:39:23;;;;;;;1.05;0.90;;;;;;;19.30;40.33;99651.81;4478332;31;33633;-82
2023/10/08 00:41:58;;;;;;;3.85;1.20;;;;;;;19.19;39.17;99652.38;4478495;31;33589;-81
2023/10/08 00:44:35;;;;;;;1.80;0.80;;;;;;;19.01;39.23;99640.09;4486599;31;33944;-81
2023/10/08 00:47:06;;;;;;;1.87;0.75;;;;;;;19.15;39.02;99646.38;4483538;31;34424;-82
2023/10/08 00:49:48;;;;;;;2.85;1.12;;;;;;;19.34;38.25;99642.84;4487461;31;33956;-81
2023/10/08 00:52:29;;;;;;;2.10;1.02;;;;;;;19.41;38.01;99633.72;4476687;32;33630;-80
2023/10/08 00:55:20;;;;;;;1.67;0.80;;;;;;;19.73;37.71;99634.75;4476977;31;33048;-81
2023/10/08 00:57:58;;;;;;;2.25;1.30;;;;;;;19.48;38.32;99644.81;4483075;31;34613;-81
2023/10/08 01:00:39;;;;;;;1.83;0.85;;;;;;;19.54;38.55;99645.31;4486832;31;34843;-80
2023/10/08 01:03:14;;;;;;;1.98;1.00;;;;;;;19.59;39.40;99648.56;4491787;31;33711;-79
2023/10/08 01:05:47;;;;;;;2.95;1.20;;;;;;;19.49;40.31;99641.22;4488516;31;34725;-80
2023/10/08 01:08:22;;;;;;;3.47;1.42;;;;;;;19.48;41.31;99642.19;4476813;32;33243;-80
2023/10/08 01:11:00;;;;;;;1.95;1.02;;;;;;;19.25;41.82;99635.41;4485862;31;33702;-80
2023/10/08 01:13:36;;;;;;;1.35;0.82;;;;;;;19.29;39.80;99635.19;4491485;31;33844;-83
2023/10/08 01:16:09;;;;;;;1.65;0.90;;;;;;;19.17;40.27;99628.75;4492442;31;33679;-82
2023/10/08 01:18:47;;;;;;;2.15;0.88;;;;;;;19.07;40.57;99630.16;4488267;31;34440;-82
2023/10/08 01:21:30;;;;;;;1.55;0.68;;;;;;;19.13;40.33;99616.69;4484783;31;34642;-81
2023/10/08 01:24:02;;;;;;;1.75;0.82;;;;;;;19.36;38.79;99615.53;4487636;31;33838;-81
2023/10/08 01:26:32;;;;;;;;;;;;;;;19.33;38.72;99623.59;4481520;31;33366;-80
2023/10/08 01:29:06;;;;;;;2.20;0.98;;;;;;;19.11;39.87;99609.81;4482226;31;34736;-82
2023/10/08 01:31:36;;;;;;;3.83;1.52;;;;;;;19.13;39.13;99611.44;4476120;32;34671;-81
2023/10/08 01:34:06;;;;;;;1.25;0.88;;;;;;;19.17;39.63;99614.78;4477730;31;33642;-80
2023/10/08 01:36:36;;;;;;;2.28;1.08;;;;;;;19.27;38.75;99609.91;4497270;31;34005;-82
2023/10/08 01:39:06;;;;;;;1.85;1.12;;;;;;;19.17;39.38;99596.37;4498653;31;33677;-81
2023/10/08 01:41:40;;;;;;;;;;;;;;;19.05;39.46;99603.09;4495808;31;34850;-82
2023/10/08 01:44:09;;;;;;;2.42;1.15;;;;;;;19.31;38.75;99600.94;4493156;31;33924;-80
2023/10/08 01:46:40;;;;;;;2.08;0.98;;;;;;;19.52;38.17;99601.59;4481124;31;32986;-81
2023/10/08 01:49:14;;;;;;;2.10;1.08;;;;;;;19.39;38.67;99593.50;4478374;31;34757;-81
2023/10/08 01:51:47;;;;;;;4.37;1.02;;;;;;;19.45;38.42;99592.31;4489411;31;34961;-81
2023/10/08 01:54:21;;;;;;;2.35;1.27;;;;;;;19.70;37.81;99578.78;4493341;31;33706;-81
2023/10/08 01:56:50;;;;;;;3.83;0.90;;;;;;;19.69;38.22;99587.59;4493536;31;34041;-81
2023/10/08 01:59:19;;;;;;;2.92;1.17;;;;;;;19.81;37.65;99584.31;4493010;31;34378;-83
2023/10/08 02:01:48;;;;;;;4.03;1.27;;;;;;;19.82;37.95;99578.12;4492224;31;34834;-81
2023/10/08 02:04:17;;;;;;;2.15;0.90;;;;;;;19.72;38.50;99579.56;4489835;31;34833;-82
2023/10/08 02:06:46;;;;;;;1.62;0.90;;;;;;;19.84;37.92;99571.00;4493270;31;33009;-81
2023/10/08 02:09:16;;;;;;;2.05;1.05;;;;;;;19.57;38.55;99566.25;4482897;31;33622;-81
2023/10/08 02:11:49;;;;;;;2.30;1.25;;;;;;;19.67;38.35;99565.72;4477836;32;34042;-81
2023/10/08 02:14:20;;;;;;;1.83;0.82;;;;;;;19.80;38.06;99572.94;4483095;32;34141;-80
2023/10/08 02:16:56;;;;;;;2.60;0.93;;;;;;;19.59;38.64;99577.50;4477573;32;32531;-83
2023/10/08 02:19:29;;;;;;;3.08;0.82;;;;;;;19.51;38.82;99576.22;4477359;32;33250;-80
2023/10/08 02:21:59;;;;;;;2.47;1.00;;;;;;;19.67;38.62;99571.88;4488544;31;33774;-81
2023/10/08 02:24:29;;;;;;;2.55;0.98;;;;;;;19.54;38.90;99562.91;4493103;31;34173;-81
2023/10/08 02:26:59;;;;;;;2.17;1.00;;;;;;;19.62;38.80;99556.31;4498416;31;33841;-81
2023/10/08 02:29:30;;;;;;;2.03;1.00;;;;;;;19.24;39.47;99553.03;4486729;31;33694;-80
2023/10/08 02:32:00;;;;;;;1.60;0.75;;;;;;;19.34;39.71;99556.06;4483197;31;33847;-80
2023/10/08 02:34:30;;;;;;;1.50;0.93;;;;;;;19.40;39.17;99566.25;4478292;31;33437;-82
2023/10/08 02:36:59;;;;;;;1.33;0.90;;;;;;;19.31;39.46;99556.22;4492535;31;33867;-81
2023/10/08 02:39:31;;;;;;;1.67;0.80;;;;;;;19.42;39.31;99553.88;4480202;31;33637;-80
2023/10/08 02:42:00;;;;;;;3.20;1.05;;;;;;;19.22;39.66;99554.06;4481950;31;33127;-81
2023/10/08 02:44:30;;;;;;;4.15;0.93;;;;;;;19.38;39.32;99545.31;4488410;31;34191;-82
2023/10/08 02:47:00;;;;;;;1.33;0.57;;;;;;;19.29;39.45;99532.62;4492814;31;33969;-81
2023/10/08 02:49:31;;;;;;;3.33;1.37;;;;;;;19.16;39.55;99535.03;4482281;31;33826;-80
2023/10/08 02:52:04;;;;;;;1.92;1.23;;;;;;;19.47;39.13;99557.09;4485995;31;34430;-80
2023/10/08 02:54:36;;;;;;;3.17;1.00;;;;;;;19.52;38.95;99554.25;4484497;31;33029;-82
2023/10/08 02:57:10;;;;;;;2.92;1.30;;;;;;;19.64;38.86;99544.84;4486238;31;34406;-82
2023/10/08 02:59:42;;;;;;;3.75;1.42;;;;;;;19.86;38.44;99560.38;4480529;31;34468;-81
2023/10/08 03:02:15;;;;;;;2.42;1.10;;;;;;;19.60;38.97;99552.91;4491036;31;33764;-80
2023/10/08 03:04:45;;;;;;;3.45;1.00;;;;;;;19.70;38.81;99534.88;4476220;31;33309;-81
2023/10/08 03:07:21;;;;;;;0.95;0.68;;;;;;;19.64;39.05;99531.69;4476744;31;32960;-80
2023/10/08 03:10:03;;;;;;;2.50;0.95;;;;;;;19.40;39.59;99539.94;4476474;32;34270;-80
2023/10/08 03:12:33;;;;;;;1.83;0.70;;;;;;;19.73;38.85;99524.19;4476492;31;32454;-81
2023/10/08 03:15:12;;;;;;;1.73;1.05;;;;;;;19.63;39.04;99522.97;4490366;31;34504;-80
2023/10/08 03:17:49;;;;;;;5.10;0.75;;;;;;;19.55;39.72;99525.16;4483173;31;33433;-80
2023/10/08 03:20:38;;;;;;;2.55;0.88;;;;;;;19.68;39.25;99525.38;4480839;31;34704;-82
2023/10/08 03:23:12;;;;;;;1.87;0.80;;;;;;;19.66;39.40;99525.41;4474991;32;33999;-81
2023/10/08 03:25:45;;;;;;;1.98;1.00;;;;;;;19.61;39.29;99520.41;4485607;31;32985;-81
2023/10/08 03:28:16;;;;;;;2.95;1.05;;;;;;;19.89;38.97;99524.22;4482181;31;33077;-82
2023/10/08 03:30:51;;;;;;;4.75;1.00;;;;;;;19.96;38.77;99509.78;4476600;31;33550;-81
2023/10/08 03:33:24;;;;;;;4.05;0.90;;;;;;;19.82;38.91;99520.22;4475271;31;33980;-82
2023/10/08 03:35:55;;;;;;;1.85;0.70;;;;;;;19.90;38.88;99511.91;4481353;31;33286;-80
2023/10/08 03:38:39;;;;;;;2.60;0.90;;;;;;;19.88;39.05;99504.09;4478235;31;34121;-81
2023/10/08 03:41:16;;;;;;;2.53;1.05;;;;;;;19.97;39.00;99506.22;4481181;32;33208;-82
2023/10/08 03:43:52;;;;;;;2.55;1.15;;;;;;;19.95;39.02;99502.81;4477477;31;33535;-82
2023/10/08 03:46:23;;;;;;;3.00;1.17;;;;;;;19.81;39.41;99497.44;4476029;31;34852;-81
2023/10/08 03:48:57;;;;;;;3.17;1.20;;;;;;;19.95;39.43;99492.28;4476593;32;33544;-82
2023/10/08 03:51:27;;;;;;;1.40;0.70;;;;;;;19.73;39.87;99486.50;4478902;31;33650;-82
2023/10/08 03:54:06;;;;;;;2.47;0.93;;;;;;;19.93;39.52;99482.78;4484117;31;32960;-81
2023/10/08 03:56:37;;;;;;;2.78;0.98;;;;;;;19.87;39.62;99473.44;4477849;31;33433;-83
2023/10/08 03:59:12;;;;;;;0.70;0.60;;;;;;;19.89;39.69;99476.00;4481166;31;32903;-80
2023/10/08 04:01:43;;;;;;;0.85;0.80;;;;;;;19.69;40.21;99477.06;4480887;31;34613;-81
2023/10/08 04:04:15;;;;;;;2.22;0.93;;;;;;;19.89;39.89;99468.94;4492461;31;33236;-81
2023/10/08 04:06:49;;;;;;;2.17;1.50;;;;;;;19.56;40.63;99487.38;4489529;31;33786;-80
2023/10/08 04:09:23;;;;;;;1.55;0.90;;;;;;;19.74;40.35;99488.19;4485139;31;33644;-80
2023/10/08 04:11:53;;;;;;;1.50;0.70;;;;;;;19.88;40.10;99471.66;4491898;31;34135;-81
2023/10/08 04:14:28;;;;;;;2.72;1.15;;;;;;;20.02;39.59;99472.56;4492359;31;33926;-81
2023/10/08 04:16:58;;;;;;;2.20;1.40;;;;;;;19.74;40.09;99462.75;4492368;31;33795;-81
2023/10/08 04:19:28;;;;;;;;;;;;;;;19.77;40.35;99461.72;4488197;31;34206;-80
2023/10/08 04:21:57;;;;;;;1.90;1.00;;;;;;;19.95;39.83;99480.91;4491950;31;33951;-80
2023/10/08 04:24:34;;;;;;;4.25;1.27;;;;;;;19.74;40.20;99464.50;4491443;31;34885;-81
2023/10/08 04:27:05;;;;;;;1.65;0.62;;;;;;;19.87;40.10;99454.16;4492243;31;34079;-82
2023/10/08 04:29:36;;;;;;;;;;;;;;;20.10;39.77;99464.25;4498360;31;33056;-82
2023/10/08 04:32:12;;;;;;;1.60;1.37;;;;;;;19.95;40.03;99465.13;4493873;31;33792;-82
2023/10/08 04:34:46;;;;;;;3.17;1.45;;;;;;;19.95;40.13;99475.63;4477651;31;35268;-82
2023/10/08 04:37:20;;;;;;;2.67;0.98;;;;;;;19.92;40.33;99470.56;4483480;31;34393;-81
2023/10/08 04:39:58;;;;;;;1.10;0.80;;;;;;;19.99;40.15;99472.75;4474817;32;33143;-81
2023/10/08 04:42:29;;;;;;;1.60;0.82;;;;;;;20.00;40.09;99474.44;4485913;31;33849;-81
2023/10/08 04:44:58;;;;;;;1.98;0.77;;;;;;;19.81;40.69;99469.38;4483290;31;33870;-81
2023/10/08 04:47:35;;;;;;;1.08;0.70;;;;;;;19.98;40.39;99464.94;4482175;31;33928;-80
2023/10/08 04:50:06;;;;;;;5.18;1.30;;;;;;;19.93;40.41;99457.28;4491944;31;34076;-81
2023/10/08 04:52:45;;;;;;;;;;;;;;;19.93;40.38;99467.81;4485147;31;34025;-81
2023/10/08 04:55:20;;;;;;;1.27;0.88;;;;;;;20.02;40.13;99466.47;4492934;31;34858;-80
2023/10/08 04:57:52;;;;;;;1.62;0.90;;;;;;;20.13;39.93;99471.16;4491745;31;32604;-82
2023/10/08 05:00:41;;;;;;;2.08;0.82;;;;;;;19.95;40.33;99471.22;4489210;31;33039;-80
2023/10/08 05:03:15;;;;;;;2.08;0.70;;;;;;;20.09;39.96;99466.97;4482810;31;34096;-82
2023/10/08 05:06:07;;;;;;;3.55;1.27;;;;;;;20.03;39.73;99465.56;4475761;31;33255;-80
2023/10/08 05:08:48;;;;;;;4.22;1.37;;;;;;;20.16;39.73;99471.81;4482683;31;32981;-83
2023/10/08 05:11:24;;;;;;;3.70;0.80;;;;;;;20.14;39.46;99454.41;4489401;31;32912;-80
2023/10/08 05:14:05;;;;;;;3.42;0.82;;;;;;;20.29;39.39;99457.94;4486678;31;35155;-81
2023/10/08 05:16:43;;;;;;;1.50;0.82;;;;;;;20.28;39.55;99459.75;4483957;31;34680;-81
2023/10/08 05:19:37;;;;;;;7.05;1.25;;;;;;;20.38;39.43;99458.28;4475243;31;35097;-81
2023/10/08 05:22:17;;;;;;;4.18;1.45;;;;;;;20.11;40.15;99462.47;4475407;31;34048;-81
2023/10/08 05:25:07;;;;;;;;;;;;;;;20.48;39.75;99458.59;4485470;31;34032;-83
2023/10/08 05:27:56;;;;;;;1.77;0.52;;;;;;;20.52;39.71;99464.53;4476454;31;33985;-82
2023/10/08 05:30:38;;;;;;;3.50;0.98;;;;;;;20.45;40.26;99462.25;4486348;31;33667;-81
2023/10/08 05:33:12;;;;;;;;;;;;;;;20.36;40.57;99473.31;4487793;31;33330;-81
2023/10/08 05:35:54;;;;;;;1.10;0.75;;;;;;;20.50;40.11;99471.69;4488457;31;34076;-81
2023/10/08 05:38:37;;;;;;;3.08;1.27;;;;;;;20.36;40.54;99475.09;4480213;31;33554;-81
2023/10/08 05:44:14;;;;;;;3.25;0.98;;;;;;;20.76;40.19;99483.37;4480370;31;33122;-80
2023/10/08 05:46:49;;;;;;;1.60;0.85;;;;;;;20.70;40.09;99489.84;4481623;32;33013;-81
2023/10/08 05:55:15;;;;;;;3.05;0.90;;;;;;;21.16;39.13;99502.94;4475233;31;33778;-79
2023/10/08 05:57:51;;;;;;;1.30;0.75;;;;;;;21.12;39.17;99505.87;4480544;31;34326;-81
2023/10/08 06:03:11;;;;;;;3.40;0.80;;;;;;;21.05;39.43;99508.88;4481211;31;33454;-81
2023/10/08 06:06:02;;;;;;;3.37;1.10;;;;;;;21.22;39.13;99514.94;4490100;31;34092;-81
2023/10/08 06:08:49;;;;;;;1.40;0.73;;;;;;;21.08;39.53;99508.69;4489717;31;33372;-80
2023/10/08 06:11:30;;;;;;;0.47;0.47;;;;;;;21.03;39.63;99512.56;4484496;31;34780;-80
2023/10/08 06:14:00;;;;;;;3.90;1.33;;;;;;;21.20;39.65;99517.66;4486514;31;34601;-81
2023/10/08 06:16:41;;;;;;;1.00;0.55;;;;;;;21.29;39.43;99526.84;4482696;31;34234;-80
2023/10/08 06:19:12;;;;;;;1.33;1.02;;;;;;;21.20;39.50;99535.28;4483392;31;33390;-80
2023/10/08 06:21:42;;;;;;;1.30;0.77;;;;;;;21.22;39.86;99541.34;4490428;31;33262;-81
2023/10/08 06:24:16;;;;;;;2.95;1.48;;;;;;;21.22;39.61;99533.41;4484595;31;33823;-81
2023/10/08 06:26:48;;;;;;;1.98;1.23;;;;;;;21.25;39.45;99536.72;4485010;31;33507;-80
2023/10/08 06:29:27;;;;;;;1.95;0.65;;;;;;;21.58;39.61;99537.44;4496539;31;34435;-81
2023/10/08 06:31:57;;;;;;;1.77;1.02;;;;;;;21.41;39.32;99536.69;4489272;31;34585;-81
2023/10/08 06:34:27;;;;;;;1.30;0.80;;;;;;;21.40;39.80;99547.31;4492668;31;33529;-81
2023/10/08 06:36:59;;;;;;;2.97;0.80;;;;;;;21.34;39.98;99555.59;4479055;31;33371;-82
2023/10/08 06:39:33;;;;;;;2.37;1.42;;;;;;;21.68;39.55;99557.91;4488422;31;33824;-80
2023/10/08 06:42:02;;;;;;;3.58;0.95;;;;;;;21.54;39.62;99557.03;4489153;31;33556;-81
2023/10/08 06:44:32;;;;;;;3.00;1.20;;;;;;;21.24;39.94;99555.28;4489658;31;33079;-82
2023/10/08 06:47:01;;;;;;;3.20;0.80;;;;;;;21.23;40.42;99554.41;4476658;32;33050;-80
2023/10/08 06:49:31;;;;;;;3.47;1.20;;;;;;;21.66;39.64;99559.78;4481908;31;34521;-80
2023/10/08 06:52:00;;;;;;;2.67;1.33;;;;;;;21.52;39.90;99565.06;4480309;31;33355;-80
2023/10/08 06:54:30;;;;;;;2.30;0.90;;;;;;;21.60;39.87;99573.38;4477341;31;34272;-80
2023/10/08 06:57:02;;;;;;;4.57;1.52;;;;;;;21.49;40.10;99573.16;4482349;31;33027;-80
2023/10/08 06:59:31;;;;;;;3.20;1.52;;;;;;;21.46;40.05;99579.47;4486585;31;33284;-80
2023/10/08 07:02:00;;;;;;;3.10;1.05;;;;;;;21.54;39.92;99576.38;4475305;32;33566;-81
2023/10/08 07:04:30;;;;;;;2.60;1.12;;;;;;;21.42;40.07;99563.91;4477412;31;34337;-83
2023/10/08 07:07:00;;;;;;;1.40;0.88;;;;;;;21.41;40.30;99556.94;4483771;31;33205;-79
2023/10/08 07:09:30;;;;;;;3.37;1.50;;;;;;;21.21;40.80;99566.84;4480143;31;33482;-80
2023/10/08 07:12:05;;;;;;;0.57;0.57;;;;;;;21.21;41.16;99569.47;4482174;31;33890;-81
2023/10/08 07:14:37;;;;;;;6.18;2.35;;;;;;;21.07;41.42;99551.84;4478900;31;34730;-82
2023/10/08 07:17:08;;;;;;;2.90;0.98;;;;;;;20.89;42.22;99553.75;4477123;32;34498;-81
2023/10/08 07:19:40;;;;;;;2.03;0.85;;;;;;;20.89;42.44;99558.19;4494286;31;33049;-80
2023/10/08 07:22:22;;;;;;;3.67;1.10;;;;;;;20.93;42.70;99545.69;4492452;31;34831;-80
2023/10/08 07:24:52;;;;;;;1.70;1.17;;;;;;;21.08;42.23;99553.53;4481244;31;133928;-80
2023/10/08 07:27:24;;;;;;;1.95;0.88;;;;;;;21.06;42.37;99544.84;4484105;31;34035;-80
2023/10/08 07:29:55;;;;;;;1.92;0.77;;;;;;;21.13;42.18;99552.41;4483124;31;34349;-81
2023/10/08 07:32:26;;;;;;;1.40;0.85;;;;;;;20.87;42.54;99550.34;4482452;31;33757;-81
2023/10/08 07:35:14;;;;;;;5.07;0.80;;;;;;;21.02;42.66;99558.31;4489866;31;34407;-80
2023/10/08 07:37:44;;;;;;;1.87;0.90;;;;;;;21.16;42.33;99555.72;4483057;31;33078;-80
2023/10/08 07:40:15;;;;;;;2.78;1.48;;;;;;;21.23;42.33;99558.84;4497968;31;32792;-81
2023/10/08 07:42:44;;;;;;;2.42;1.30;;;;;;;21.21;42.05;99560.72;4480413;31;33558;-81
2023/10/08 07:45:17;;;;;;;2.78;1.33;;;;;;;21.21;43.05;99560.72;4481159;32;34346;-80
2023/10/08 07:47:46;;;;;;;2.05;0.88;;;;;;;21.37;42.65;99556.25;4473739;31;33335;-82
2023/10/08 07:50:17;;;;;;;2.30;0.90;;;;;;;21.50;42.28;99553.72;4476227;32;33033;-82
2023/10/08 07:52:45;;;;;;;3.53;1.30;;;;;;;21.47;42.15;99548.66;4477020;31;33269;-80
2023/10/08 07:55:17;;;;;;;1.27;0.73;;;;;;;21.61;42.13;99547.81;4489299;31;34135;-79
2023/10/08 07:57:48;;;;;;;1.17;0.80;;;;;;;21.74;42.36;99552.22;4481132;31;33948;-80
2023/10/08 08:00:22;;;;;;;2.72;1.27;;;;;;;21.69;42.42;99551.66;4484401;31;35150;-82
2023/10/08 08:02:54;;;;;;;3.40;1.08;;;;;;;21.41;42.87;99549.03;4482900;31;33685;-80
2023/10/08 08:05:25;;;;;;;2.97;0.90;;;;;;;21.42;43.11;99550.72;4480403;31;34374;-81
2023/10/08 08:07:56;;;;;;;3.62;1.00;;;;;;;21.49;42.96;99552.03;4488257;31;33617;-82
2023/10/08 08:10:25;;;;;;;1.55;0.73;;;;;;;21.61;43.17;99561.00;4480468;31;33453;-80
2023/10/08 08:12:56;;;;;;;1.65;0.85;;;;;;;21.53;43.11;99564.13;4471038;31;34632;-81
2023/10/08 08:15:27;;;;;;;;;;;;;;;21.22;43.75;99546.59;4482952;31;32704;-81
2023/10/08 08:17:56;;;;;;;1.58;1.17;;;;;;;21.50;43.50;99551.09;4478648;31;32971;-82
2023/10/08 08:20:38;;;;;;;3.47;0.88;;;;;;;21.61;42.90;99553.94;4487354;31;33900;-81
2023/10/08 08:23:09;;;;;;;1.70;0.90;;;;;;;21.65;43.12;99552.81;4479661;31;34117;-81
2023/10/08 08:25:45;;;;;;;1.37;0.80;;;;;;;21.21;44.25;99561.56;4478855;31;33548;-82
2023/10/08 08:28:20;;;;;;;2.00;0.80;;;;;;;21.49;43.77;99565.25;4475291;31;33163;-80
2023/10/08 08:30:52;;;;;;;2.03;0.90;;;;;;;21.45;43.94;99564.56;4476816;31;33894;-82
2023/10/08 08:33:23;;;;;;;1.20;0.82;;;;;;;21.42;44.46;99572.66;4481422;31;33708;-81
2023/10/08 08:36:00;;;;;;;1.33;0.60;;;;;;;21.60;44.42;99565.44;4478352;31;33685;-80
2023/10/08 08:38:32;;;;;;;2.33;1.45;;;;;;;21.56;44.79;99571.00;4485605;31;32943;-79
2023/10/08 08:41:06;;;;;;;1.95;0.70;;;;;;;21.80;44.54;99563.38;4478918;31;34194;-82
2023/10/08 08:43:37;;;;;;;1.65;0.98;;;;;;;21.72;44.58;99559.41;4483085;31;34555;-81
2023/10/08 08:46:06;;;;;;;1.73;0.93;;;;;;;21.49;44.95;99562.59;4481608;32;34336;-80
2023/10/08 08:48:38;;;;;;;0.95;0.60;;;;;;;21.63;44.75;99553.84;4476902;32;32567;-82
2023/10/08 08:51:09;;;;;;;2.83;1.52;;;;;;;21.93;44.76;99553.75;4476357;32;33665;-81
2023/10/08 08:53:38;;;;;;;1.83;0.80;;;;;;;21.93;45.03;99562.50;4483240;31;33470;-79
2023/10/08 08:56:10;;;;;;;3.83;0.75;;;;;;;21.98;44.64;99564.88;4492373;31;35496;-79
2023/10/08 08:58:41;;;;;;;1.73;1.00;;;;;;;22.19;44.76;99580.34;4488104;31;33660;-80
2023/10/08 09:01:13;;;;;;;2.03;0.80;;;;;;;22.10;44.30;99571.19;4479977;31;32987;-81
2023/10/08 09:03:42;;;;;;;1.50;0.80;;;;;;;21.90;44.74;99562.69;4482410;31;33716;-80
2023/10/08 09:06:12;;;;;;;2.37;1.35;;;;;;;21.84;45.02;99555.19;4482618;31;33836;-80
2023/10/08 09:08:45;;;;;;;1.50;0.80;;;;;;;21.94;44.90;99569.50;4485597;31;32335;-80
2023/10/08 09:11:18;;;;;;;1.45;0.90;;;;;;;22.08;45.09;99579.19;4478983;31;34288;-80
2023/10/08 09:13:47;;;;;;;1.98;0.88;;;;;;;21.97;45.25;99581.66;4483432;31;33573;-82
2023/10/08 09:16:17;;;;;;;2.85;1.08;;;;;;;21.91;45.53;99590.81;4476374;32;33802;-80
2023/10/08 09:18:49;;;;;;;0.90;0.70;;;;;;;21.94;45.32;99605.63;4485769;31;32600;-79
2023/10/08 09:21:22;;;;;;;3.03;2.28;;;;;;;21.89;45.59;99620.87;4491602;31;33411;-81
2023/10/08 09:23:52;;;;;;;3.35;0.80;;;;;;;21.92;45.73;99610.16;4492897;31;34595;-82
2023/10/08 09:26:25;;;;;;;3.23;0.67;;;;;;;21.87;45.85;99602.53;4493470;31;34390;-80
2023/10/08 09:28:54;;;;;;;1.70;0.70;;;;;;;21.90;45.96;99641.09;4493019;31;33815;-79
2023/10/08 09:31:24;;;;;;;10.55;1.62;;;;;;;21.93;45.86;99639.09;4498608;31;33651;-80
2023/10/08 09:33:56;;;;;;;1.93;0.90;;;;;;;21.77;46.25;99651.56;4493814;31;34676;-80
2023/10/08 09:36:32;;;;;;;3.25;0.70;;;;;;;21.94;46.04;99650.53;4492776;31;33879;-80
2023/10/08 09:39:04;;;;;;;1.55;0.77;;;;;;;21.68;46.69;99658.22;4491905;31;33474;-80
2023/10/08 09:41:35;;;;;;;3.97;0.95;;;;;;;21.74;46.80;99667.56;4492025;31;33449;-80
2023/10/08 09:44:05;;;;;;;1.62;1.33;;;;;;;21.54;47.04;99666.13;4497218;31;33830;-81
2023/10/08 09:46:36;;;;;;;3.92;1.75;;;;;;;21.68;47.09;99676.72;4492048;31;33827;-81
2023/10/08 09:49:07;;;;;;;2.10;1.02;;;;;;;21.86;46.95;99671.25;4491977;31;32705;-80
2023/10/08 09:51:41;;;;;;;3.45;1.85;;;;;;;21.87;46.87;99673.81;4492552;31;34373;-80
2023/10/08 09:54:13;;;;;;;1.50;0.70;;;;;;;21.67;47.50;99677.66;4498942;31;33416;-82
2023/10/08 09:56:44;;;;;;;1.70;0.80;;;;;;;21.58;48.00;99657.09;4493607;31;33569;-81
2023/10/08 09:59:14;;;;;;;1.87;0.88;;;;;;;21.58;48.04;99688.75;4493258;31;33478;-79
2023/10/08 10:01:44;;;;;;;4.28;1.10;;;;;;;21.53;48.24;99680.28;4493909;31;33784;-79
2023/10/08 10:04:24;;;;;;;2.25;1.20;;;;;;;21.45;48.65;99683.31;4493730;31;33665;-81
2023/10/08 10:06:57;;;;;;;8.50;1.30;;;;;;;21.67;48.60;99698.78;4498995;31;33954;-81
2023/10/08 10:09:27;;;;;;;2.03;0.80;;;;;;;21.50;49.21;99715.62;4493187;31;33795;-79
2023/10/08 10:11:57;;;;;;;5.05;1.60;;;;;;;21.44;49.69;99723.03;4492850;31;34359;-80
2023/10/08 10:14:27;;;;;;;2.67;2.00;;;;;;;21.13;50.48;99734.44;4493286;31;34876;-81
2023/10/08 10:17:10;;;;;;;1.35;0.77;;;;;;;20.80;51.45;99759.97;4493435;31;33540;-79
2023/10/08 10:19:51;;;;;;;2.62;0.93;;;;;;;20.55;52.41;99770.06;4498309;31;33148;-79
2023/10/08 10:22:30;;;;;;;2.33;1.30;;;;;;;20.38;53.14;99756.00;4493927;31;34600;-80
2023/10/08 10:25:00;;;;;;;1.95;0.90;;;;;;;20.59;52.59;99746.16;4493328;31;34727;-80
2023/10/08 10:27:28;;;;;;;2.78;1.15;;;;;;;20.44;52.69;99750.44;4493778;31;34234;-81
2023/10/08 10:30:08;;;;;;;1.87;1.10;;;;;;;20.26;53.03;99730.31;4493313;31;33037;-80
2023/10/08 10:32:37;;;;;;;1.27;0.50;;;;;;;20.29;52.85;99732.78;4498431;31;34613;-80
2023/10/08 10:35:11;;;;;;;0.55;0.50;;;;;;;20.40;52.50;99743.59;4493093;31;33744;-79
2023/10/08 10:37:42;;;;;;;1.08;0.60;;;;;;;20.37;52.30;99725.31;4493440;31;33961;-81
2023/10/08 10:40:12;;;;;;;0.60;0.40;;;;;;;20.58;51.56;99727.78;4493258;31;32702;-79
2023/10/08 10:42:44;;;;;;;0.73;0.40;;;;;;;20.63;51.25;99737.16;4493293;31;33713;-81
2023/10/08 10:45:35;;;;;;;1.45;0.62;;;;;;;20.60;51.17;99745.19;4498218;31;34686;-79
2023/10/08 10:48:21;;;;;;;0.77;0.60;;;;;;;20.78;50.44;99755.69;4492951;31;34594;-81
2023/10/08 10:53:44;;;;;;;0.43;0.37;;;;;;;20.80;50.66;99736.22;4493136;31;33791;-81
2023/10/08 10:56:18;;;;;;;0.40;0.40;;;;;;;20.74;50.35;99762.91;4493276;31;33675;-81
2023/10/08 10:58:53;;;;;;;0.73;0.52;;;;;;;20.27;51.41;99746.94;4493306;31;34101;-80
2023/10/08 11:01:23;;;;;;;0.40;0.40;;;;;;;20.38;51.19;99773.59;4498911;31;33306;-80
2023/10/08 11:03:53;;;;;;;0.40;0.40;;;;;;;20.53;50.80;99780.69;4493160;31;33782;-80
2023/10/08 11:06:23;;;;;;;0.50;0.50;;;;;;;20.28;51.55;99780.28;4492987;31;34555;-79
2023/10/08 11:08:54;;;;;;;0.47;0.47;;;;;;;20.37;51.01;99779.78;4492569;31;33912;-82
2023/10/08 11:11:28;;;;;;;1.30;0.40;;;;;;;20.12;49.96;99788.13;4498453;31;33439;-81
2023/10/08 11:14:00;;;;;;;0.50;0.47;;;;;;;20.20;49.75;99793.88;4497045;31;33519;-80
2023/10/08 11:16:31;;;;;;;0.75;0.40;;;;;;;19.96;49.70;99788.06;4492862;31;33498;-79
2023/10/08 11:19:06;;;;;;;1.17;0.57;;;;;;;19.85;49.51;99801.75;4493030;31;34167;-80
2023/10/08 11:21:50;;;;;;;0.30;0.30;;;;;;;19.81;49.64;99806.31;4492450;31;32883;-80
2023/10/08 11:24:33;;;;;;;0.30;0.30;;;;;;;19.73;48.87;99797.94;4498620;31;33273;-80
2023/10/08 11:27:15;;;;;;;0.43;0.43;;;;;;;19.49;49.63;99785.94;4498062;31;34302;-81
2023/10/08 11:29:46;;;;;;;0.73;0.45;;;;;;;19.39;50.12;99803.94;4492768;31;34490;-81
2023/10/08 11:32:17;;;;;;;0.35;0.35;;;;;;;19.26;48.21;99814.22;4492812;31;33222;-80
2023/10/08 11:34:49;;;;;;;;;;;;;;;18.83;46.73;99804.81;4493150;31;33434;-80
2023/10/08 11:37:27;;;;;;;0.30;0.30;;;;;;;18.92;46.55;99814.94;4493359;31;34664;-81
2023/10/08 11:39:59;;;;;;;0.30;0.30;;;;;;;19.02;46.45;99821.47;4498260;31;33769;-82
2023/10/08 11:42:43;;;;;;;0.30;0.30;;;;;;;18.78;46.65;99814.69;4492717;31;33415;-79
2023/10/08 11:45:19;;;;;;;0.30;0.30;;;;;;;18.98;46.55;99815.47;4492587;31;33374;-79
2023/10/08 11:47:49;;;;;;;0.40;0.40;;;;;;;19.03;46.63;99810.00;4492589;31;34776;-80
2023/10/08 11:50:19;;;;;;;7.07;0.75;;;;;;;18.84;46.52;99814.41;4492683;31;33546;-80
2023/10/08 11:52:49;;;;;;;0.40;0.40;;;;;;;18.73;46.20;99813.09;4498356;31;33240;-79
2023/10/08 11:55:20;;;;;;;0.60;0.37;;;;;;;18.45;46.26;99823.09;4492696;31;33567;-80
2023/10/08 11:57:50;;;;;;;0.40;0.40;;;;;;;18.29;46.76;99818.53;4493007;31;33804;-81
2023/10/08 12:00:24;;;;;;;0.30;0.30;;;;;;;18.49;46.43;99828.16;4492607;31;33615;-80
2023/10/08 12:03:01;;;;;;;0.62;0.40;;;;;;;18.59;46.91;99825.97;4492912;31;34174;-80
2023/10/08 12:05:32;;;;;;;0.32;0.32;;;;;;;18.38;47.19;99825.13;4498222;31;33486;-79
2023/10/08 12:08:01;;;;;;;0.30;0.30;;;;;;;18.28;47.19;99840.44;4492840;31;34068;-82
2023/10/08 12:10:34;;;;;;;0.30;0.30;;;;;;;18.47;46.68;99845.75;4492514;31;33476;-81
2023/10/08 12:13:05;;;;;;;0.50;0.50;;;;;;;18.52;46.06;99853.44;4493035;31;33573;-79
2023/10/08 12:15:38;;;;;;;;;;;;;;;18.28;46.08;99856.19;4498134;31;34314;-80
2023/10/08 12:18:15;;;;;;;0.32;0.32;;;;;;;18.12;46.10;99866.50;4492326;31;34126;-81
2023/10/08 12:20:45;;;;;;;0.40;0.40;;;;;;;17.81;46.63;99869.53;4492221;31;34050;-79